Lady Nan Ce' — V7YJ700 — position and weather

sailwx.info

Track history (hours):
 
Tides and Currents Weather Stations Pressure Air Temp Water Temp Dewpoint Dewpoint Depression Visibility Wind Speed Wind Dir Waves Ship Positions

Lady Nan Ce'

Last reported at 2018-Jan-01 04:41 UTC. Time now 2018-Jan-21 15:03 UTC.
Position N 26°25' W 080°04'.
Warning: this ship's position is 20 days out of date.

Length 35 m.

Type: Pleasure craft. MMSI: 338132366.

Date/timePositionNaut miles runAvg speedWind from/ knotsBaromVisibWave heightAir tempDewpointWater temp
2018-Jan-01 04:41N 26°25' W 080°04'3 0.1
2017-Dec-30 18:41N 26°22' W 080°04'1 3.8
2017-Dec-30 18:26N 26°23' W 080°04'2 0.1
2017-Dec-29 20:05N 26°21' W 080°05'1 2.3
2017-Dec-29 19:50N 26°21' W 080°05'3 5.4
2017-Dec-29 19:20N 26°18' W 080°05'2 6.8
2017-Dec-29 19:00N 26°16' W 080°05'2 3.7
2017-Dec-29 18:23N 26°14' W 080°06'2 6.3
2017-Dec-29 18:00N 26°11' W 080°06'3 5.9
2017-Dec-29 17:28N 26°08' W 080°07'2 3.3
2017-Dec-29 17:00N 26°07' W 080°07'4 8.4
2017-Dec-29 16:30N 26°03' W 080°05'918.9
2017-Dec-29 16:00N 25°53' W 080°04'816.6
2017-Dec-29 15:30N 25°45' W 080°07'2 2.9
2017-Dec-29 14:58N 25°46' W 080°09'0 0.0
2017-Dec-29 14:28N 25°46' W 080°09'0 0.0
2017-Dec-29 13:58N 25°46' W 080°09'0 0.0
2017-Dec-29 13:28N 25°46' W 080°09'0 0.0
2017-Dec-29 12:58N 25°46' W 080°09'0 0.0
2017-Dec-29 12:28N 25°46' W 080°09'0 0.0
2017-Dec-29 11:58N 25°46' W 080°09'0 0.0
2017-Dec-29 11:25N 25°46' W 080°09'0 0.0
2017-Dec-29 10:58N 25°46' W 080°09'0 0.0
2017-Dec-29 10:28N 25°46' W 080°09'0 0.0
2017-Dec-29 09:58N 25°46' W 080°09'0 0.0
2017-Dec-29 09:28N 25°46' W 080°09'0 0.0
2017-Dec-29 08:58N 25°46' W 080°09'0 0.0
2017-Dec-29 08:28N 25°46' W 080°09'0 0.0
2017-Dec-29 07:58N 25°46' W 080°09'0 0.0
2017-Dec-29 07:28N 25°46' W 080°09'0 0.0
2017-Dec-29 06:58N 25°46' W 080°09'0 0.0
2017-Dec-29 06:28N 25°46' W 080°09'0 0.0
2017-Dec-29 05:58N 25°46' W 080°09'0 0.0
2017-Dec-29 05:28N 25°46' W 080°09'0 0.0
2017-Dec-29 04:58N 25°46' W 080°09'0 0.0
2017-Dec-29 04:28N 25°46' W 080°09'0 0.0
2017-Dec-29 03:58N 25°46' W 080°09'0 0.0
2017-Dec-29 03:28N 25°46' W 080°09'0 0.0
2017-Dec-29 02:58N 25°46' W 080°09'0 0.0
2017-Dec-29 02:28N 25°46' W 080°09'0 0.0
2017-Dec-29 01:58N 25°46' W 080°09'0 0.0
2017-Dec-29 01:28N 25°46' W 080°09'0 0.0
2017-Dec-29 00:58N 25°46' W 080°09'0 0.0
2017-Dec-29 00:28N 25°46' W 080°09'0 0.0
2017-Dec-28 23:58N 25°46' W 080°09'0 0.0
2017-Dec-28 23:28N 25°46' W 080°09'0 0.4
2017-Dec-28 23:00N 25°46' W 080°09'2 4.7
2017-Dec-28 22:31N 25°47' W 080°11'2 4.5
2017-Dec-28 22:00N 25°46' W 080°09'0 0.7
2017-Dec-28 21:28N 25°46' W 080°09'0 0.0
2017-Dec-28 20:58N 25°46' W 080°09'0 0.0
2017-Dec-28 20:29N 25°46' W 080°09'2 4.8
2017-Dec-28 20:00N 25°46' W 080°06'917.2
2017-Dec-28 19:30N 25°54' W 080°06'918.2
2017-Dec-28 19:00N 26°03' W 080°05'3 6.4
2017-Dec-28 18:30N 26°06' W 080°07'2 4.6
2017-Dec-28 18:00N 26°08' W 080°06'3 5.1
2017-Dec-28 17:23N 26°12' W 080°06'2 5.9
2017-Dec-28 16:58N 26°14' W 080°06'2 3.9
2017-Dec-28 16:30N 26°16' W 080°05'3 6.5
2017-Dec-28 16:00N 26°19' W 080°05'0 0.9
2017-Dec-28 15:31N 26°19' W 080°05'2 3.0
2017-Dec-28 14:54N 26°21' W 080°05'3 5.1
2017-Dec-28 14:23N 26°24' W 080°04'  
Track history (hours):
 
Tides and Currents Weather Stations Pressure Air Temp Water Temp Dewpoint Dewpoint Depression Visibility Wind Speed Wind Dir Waves Ship Positions

Lady Nan Ce'

Last reported at 2018-Jan-01 04:41 UTC. Time now 2018-Jan-21 15:03 UTC.
Position N 26°25' W 080°04'.
Warning: this ship's position is 20 days out of date.

Length 35 m.

Type: Pleasure craft. MMSI: 338132366.

Date/timePositionNaut miles runAvg speedWind from/ knotsBaromVisibWave heightAir tempDewpointWater temp
2018-Jan-01 04:41N 26°25' W 080°04'3 0.1
2017-Dec-30 18:41N 26°22' W 080°04'1 3.8
2017-Dec-30 18:26N 26°23' W 080°04'2 0.1
2017-Dec-29 20:05N 26°21' W 080°05'1 2.3
2017-Dec-29 19:50N 26°21' W 080°05'3 5.4
2017-Dec-29 19:20N 26°18' W 080°05'2 6.8
2017-Dec-29 19:00N 26°16' W 080°05'2 3.7
2017-Dec-29 18:23N 26°14' W 080°06'2 6.3
2017-Dec-29 18:00N 26°11' W 080°06'3 5.9
2017-Dec-29 17:28N 26°08' W 080°07'2 3.3
2017-Dec-29 17:00N 26°07' W 080°07'4 8.4
2017-Dec-29 16:30N 26°03' W 080°05'918.9
2017-Dec-29 16:00N 25°53' W 080°04'816.6
2017-Dec-29 15:30N 25°45' W 080°07'2 2.9
2017-Dec-29 14:58N 25°46' W 080°09'0 0.0
2017-Dec-29 14:28N 25°46' W 080°09'0 0.0
2017-Dec-29 13:58N 25°46' W 080°09'0 0.0
2017-Dec-29 13:28N 25°46' W 080°09'0 0.0
2017-Dec-29 12:58N 25°46' W 080°09'0 0.0
2017-Dec-29 12:28N 25°46' W 080°09'0 0.0
2017-Dec-29 11:58N 25°46' W 080°09'0 0.0
2017-Dec-29 11:25N 25°46' W 080°09'0 0.0
2017-Dec-29 10:58N 25°46' W 080°09'0 0.0
2017-Dec-29 10:28N 25°46' W 080°09'0 0.0
2017-Dec-29 09:58N 25°46' W 080°09'0 0.0
2017-Dec-29 09:28N 25°46' W 080°09'0 0.0
2017-Dec-29 08:58N 25°46' W 080°09'0 0.0
2017-Dec-29 08:28N 25°46' W 080°09'0 0.0
2017-Dec-29 07:58N 25°46' W 080°09'0 0.0
2017-Dec-29 07:28N 25°46' W 080°09'0 0.0
2017-Dec-29 06:58N 25°46' W 080°09'0 0.0
2017-Dec-29 06:28N 25°46' W 080°09'0 0.0
2017-Dec-29 05:58N 25°46' W 080°09'0 0.0
2017-Dec-29 05:28N 25°46' W 080°09'0 0.0
2017-Dec-29 04:58N 25°46' W 080°09'0 0.0
2017-Dec-29 04:28N 25°46' W 080°09'0 0.0
2017-Dec-29 03:58N 25°46' W 080°09'0 0.0
2017-Dec-29 03:28N 25°46' W 080°09'0 0.0
2017-Dec-29 02:58N 25°46' W 080°09'0 0.0
2017-Dec-29 02:28N 25°46' W 080°09'0 0.0
2017-Dec-29 01:58N 25°46' W 080°09'0 0.0
2017-Dec-29 01:28N 25°46' W 080°09'0 0.0
2017-Dec-29 00:58N 25°46' W 080°09'0 0.0
2017-Dec-29 00:28N 25°46' W 080°09'0 0.0
2017-Dec-28 23:58N 25°46' W 080°09'0 0.0
2017-Dec-28 23:28N 25°46' W 080°09'0 0.4
2017-Dec-28 23:00N 25°46' W 080°09'2 4.7
2017-Dec-28 22:31N 25°47' W 080°11'2 4.5
2017-Dec-28 22:00N 25°46' W 080°09'0 0.7
2017-Dec-28 21:28N 25°46' W 080°09'0 0.0
2017-Dec-28 20:58N 25°46' W 080°09'0 0.0
2017-Dec-28 20:29N 25°46' W 080°09'2 4.8
2017-Dec-28 20:00N 25°46' W 080°06'917.2
2017-Dec-28 19:30N 25°54' W 080°06'918.2
2017-Dec-28 19:00N 26°03' W 080°05'3 6.4
2017-Dec-28 18:30N 26°06' W 080°07'2 4.6
2017-Dec-28 18:00N 26°08' W 080°06'3 5.1
2017-Dec-28 17:23N 26°12' W 080°06'2 5.9
2017-Dec-28 16:58N 26°14' W 080°06'2 3.9
2017-Dec-28 16:30N 26°16' W 080°05'3 6.5
2017-Dec-28 16:00N 26°19' W 080°05'0 0.9
2017-Dec-28 15:31N 26°19' W 080°05'2 3.0
2017-Dec-28 14:54N 26°21' W 080°05'3 5.1
2017-Dec-28 14:23N 26°24' W 080°04'  

Dump ship's entire track history